Time;durP1;ratioP1;P1;durP2;ratioP2;P2;SDS_P1;SDS_P2;PMS_P1;PMS_P2;Temp;Humidity;BMP_temperature;BMP_pressure;BME280_temperature;BME280_humidity;BME280_pressure;Samples;Min_cycle;Max_cycle;Signal;HPM_P1;HPM_P2
2021/03/18 00:01:09;;;;;;;6.75;3.10;;;-2.70;99.90;;;;;;5072631;28;20040;-53
2021/03/18 00:03:37;;;;;;;7.72;2.47;;;-2.70;99.90;;;;;;5072552;28;20035;-52
2021/03/18 00:06:03;;;;;;;4.30;2.53;;;-2.70;99.90;;;;;;5072380;28;20058;-55
2021/03/18 00:08:30;;;;;;;6.80;3.08;;;-2.70;99.90;;;;;;5071351;28;20074;-50
2021/03/18 00:10:56;;;;;;;4.95;2.75;;;-2.70;99.90;;;;;;5072287;28;20036;-52
2021/03/18 00:13:24;;;;;;;4.97;2.63;;;-2.70;99.90;;;;;;5072131;28;20487;-51
2021/03/18 00:15:50;;;;;;;6.65;3.22;;;-2.80;99.90;;;;;;5072302;28;20406;-52
2021/03/18 00:18:18;;;;;;;5.05;2.72;;;-2.70;99.90;;;;;;5072047;28;20032;-55
2021/03/18 00:20:45;;;;;;;4.82;2.63;;;-2.80;99.90;;;;;;5072387;28;20059;-54
2021/03/18 00:23:11;;;;;;;7.32;2.97;;;-2.80;99.90;;;;;;5070982;28;20064;-49
2021/03/18 00:25:37;;;;;;;6.00;3.08;;;-2.70;99.90;;;;;;5072303;28;20028;-56
2021/03/18 00:28:03;;;;;;;6.75;2.90;;;-2.70;99.90;;;;;;5071843;28;20432;-54
2021/03/18 00:30:29;;;;;;;6.10;3.10;;;-2.70;99.90;;;;;;5072044;28;20494;-53
2021/03/18 00:32:55;;;;;;;5.63;2.35;;;-2.70;99.90;;;;;;5074423;28;20024;-56
2021/03/18 00:35:22;;;;;;;4.90;2.85;;;-2.70;99.90;;;;;;5092055;28;20483;-50
2021/03/18 00:37:49;;;;;;;6.13;3.42;;;-2.70;99.90;;;;;;5091032;28;20503;-53
2021/03/18 00:40:16;;;;;;;9.95;3.75;;;-2.60;99.90;;;;;;5091916;28;20020;-54
2021/03/18 00:42:55;;;;;;;8.13;3.60;;;-2.60;99.90;;;;;;5091679;28;20530;-54
2021/03/18 00:45:22;;;;;;;7.53;2.85;;;-2.60;99.90;;;;;;5091834;28;20043;-53
2021/03/18 00:47:49;;;;;;;8.75;3.67;;;-2.60;99.90;;;;;;5091836;28;20027;-49
2021/03/18 00:50:48;;;;;;;8.70;3.13;;;-2.60;99.90;;;;;;5090847;28;20111;-54
2021/03/18 00:53:16;;;;;;;6.38;3.80;;;-2.60;99.90;;;;;;5060988;28;20029;-51
2021/03/18 00:55:42;;;;;;;7.53;3.22;;;-2.60;99.90;;;;;;5071253;28;20049;-55
2021/03/18 00:58:09;;;;;;;6.40;3.13;;;-2.60;99.90;;;;;;5071425;28;20028;-54
2021/03/18 01:00:44;;;;;;;8.40;3.50;;;-2.60;99.90;;;;;;5071557;28;20037;-56
2021/03/18 01:03:11;;;;;;;7.37;3.37;;;-2.60;99.90;;;;;;5071507;28;20053;-53
2021/03/18 01:05:36;;;;;;;6.45;3.25;;;-2.70;99.90;;;;;;5076796;28;20680;-54
2021/03/18 01:08:03;;;;;;;6.95;3.72;;;-2.70;99.90;;;;;;5061150;28;20021;-49
2021/03/18 01:10:50;;;;;;;6.15;3.40;;;-2.70;99.90;;;;;;5053199;28;20047;-53
2021/03/18 01:13:19;;;;;;;7.63;3.67;;;-2.70;99.90;;;;;;5052516;28;20432;-53
2021/03/18 01:15:50;;;;;;;7.90;3.55;;;-2.40;99.90;;;;;;5068577;28;20033;-54
2021/03/18 01:18:18;;;;;;;5.68;2.70;;;-2.50;99.90;;;;;;5052841;28;20112;-51
2021/03/18 01:20:44;;;;;;;6.07;2.90;;;-2.60;99.90;;;;;;5053086;28;20033;-55
2021/03/18 01:23:10;;;;;;;5.45;3.30;;;-2.60;99.90;;;;;;5051369;28;20095;-51
2021/03/18 01:25:35;;;;;;;6.68;3.35;;;-2.70;99.90;;;;;;5074445;28;20036;-54
2021/03/18 01:28:01;;;;;;;9.27;3.88;;;-2.80;99.90;;;;;;5091840;28;20024;-52
2021/03/18 01:30:26;;;;;;;5.88;2.92;;;-2.80;99.90;;;;;;5093217;28;20035;-53
2021/03/18 01:32:52;;;;;;;6.72;3.80;;;-2.80;99.90;;;;;;5092996;28;20521;-51
2021/03/18 01:35:21;;;;;;;6.00;3.13;;;-2.80;99.90;;;;;;5092940;28;20061;-54
2021/03/18 01:37:47;;;;;;;5.90;3.20;;;-2.80;99.90;;;;;;5092119;28;20036;-53
2021/03/18 01:40:20;;;;;;;9.85;3.72;;;-2.80;99.90;;;;;;5092867;28;20086;-52
2021/03/18 01:42:45;;;;;;;8.15;3.97;;;-2.80;99.90;;;;;;5092942;28;20032;-54
2021/03/18 01:45:12;;;;;;;6.45;3.55;;;-2.80;99.90;;;;;;5092546;28;20036;-53
2021/03/18 01:47:40;;;;;;;8.52;3.47;;;-2.80;99.90;;;;;;5092785;28;20071;-54
2021/03/18 01:50:08;;;;;;;8.18;3.83;;;-2.80;99.90;;;;;;5092843;28;20028;-50
2021/03/18 01:52:34;;;;;;;9.25;3.75;;;-2.80;99.90;;;;;;5051870;28;20047;-55
2021/03/18 01:55:00;;;;;;;7.68;3.60;;;-2.80;99.90;;;;;;5052284;28;20037;-56
2021/03/18 01:57:26;;;;;;;6.70;3.78;;;-2.80;99.90;;;;;;5052420;28;20373;-54
2021/03/18 01:59:53;;;;;;;8.27;3.40;;;-2.80;99.90;;;;;;5051828;28;20033;-54
2021/03/18 02:02:19;;;;;;;7.88;3.40;;;-2.80;99.90;;;;;;5052565;28;20445;-55
2021/03/18 02:04:45;;;;;;;9.77;4.15;;;-2.80;99.90;;;;;;5052358;28;20033;-53
2021/03/18 02:07:11;;;;;;;7.22;3.53;;;-2.80;99.90;;;;;;5051593;28;20419;-53
2021/03/18 02:09:36;;;;;;;7.82;4.07;;;-2.70;99.90;;;;;;5052169;28;20025;-54
2021/03/18 02:12:03;;;;;;;8.10;4.13;;;-2.70;99.90;;;;;;5052276;28;20487;-56
2021/03/18 02:14:28;;;;;;;6.47;3.28;;;-2.70;99.90;;;;;;5052221;28;20107;-55
2021/03/18 02:16:57;;;;;;;6.80;3.58;;;-2.70;99.90;;;;;;5051436;28;20120;-52
2021/03/18 02:20:08;;;;;;;7.57;3.45;;;-2.60;99.90;;;;;;5052152;28;20067;-52
2021/03/18 02:22:57;;;;;;;10.65;4.28;;;-2.60;99.90;;;;;;5035189;28;20045;-56
2021/03/18 02:25:26;;;;;;;8.57;3.70;;;-2.50;99.90;;;;;;5064850;28;20036;-55
2021/03/18 02:28:09;;;;;;;10.85;4.70;;;-2.40;99.90;;;;;;5092487;28;20028;-56
2021/03/18 02:30:55;;;;;;;7.00;3.95;;;-2.40;99.90;;;;;;5092370;28;20020;-50
2021/03/18 02:33:23;;;;;;;10.65;4.70;;;-2.30;99.90;;;;;;5092249;28;20084;-53
2021/03/18 02:35:55;;;;;;;9.07;4.10;;;-2.30;99.90;;;;;;5095498;28;20038;-53
2021/03/18 02:39:13;;;;;;;8.38;4.32;;;-2.20;99.90;;;;;;5085109;28;20016;-51
2021/03/18 02:42:01;;;;;;;7.90;4.22;;;-2.20;99.90;;;;;;5074624;28;20039;-55
2021/03/18 02:44:29;;;;;;;10.95;5.00;;;-2.10;99.90;;;;;;5076234;28;20028;-53
2021/03/18 02:47:15;;;;;;;10.05;4.38;;;-2.10;99.90;;;;;;5075863;28;20028;-52
2021/03/18 02:49:47;;;;;;;8.75;3.92;;;-2.00;99.90;;;;;;5075710;28;20036;-53
2021/03/18 02:52:17;;;;;;;6.55;3.47;;;-2.00;99.90;;;;;;5074663;28;20033;-53
2021/03/18 02:54:44;;;;;;;9.70;4.60;;;-1.90;99.90;;;;;;5075787;28;20529;-51
2021/03/18 02:57:12;;;;;;;7.70;4.75;;;-1.90;99.90;;;;;;5075347;28;20395;-56
2021/03/18 02:59:40;;;;;;;8.18;4.18;;;-1.80;99.90;;;;;;5074572;28;20115;-53
2021/03/18 03:02:12;;;;;;;8.52;4.30;;;-1.80;99.90;;;;;;5075669;28;20072;-54
2021/03/18 03:04:39;;;;;;;9.07;4.20;;;-1.80;99.90;;;;;;5075643;28;20028;-52
2021/03/18 03:07:07;;;;;;;8.35;4.45;;;-1.70;99.90;;;;;;5074964;28;20021;-55
2021/03/18 03:09:35;;;;;;;10.10;4.80;;;-1.70;99.90;;;;;;5075618;28;20020;-56
2021/03/18 03:12:02;;;;;;;10.52;4.90;;;-1.60;99.90;;;;;;5075449;28;20020;-55
2021/03/18 03:14:31;;;;;;;8.95;4.43;;;-1.60;99.90;;;;;;5075529;28;20091;-55
2021/03/18 03:16:57;;;;;;;9.60;4.53;;;-1.60;99.90;;;;;;5075088;28;20029;-51
2021/03/18 03:19:24;;;;;;;9.98;5.15;;;-1.60;99.90;;;;;;5075286;28;20072;-52
2021/03/18 03:21:50;;;;;;;12.73;5.07;;;-1.50;99.90;;;;;;5075342;28;20032;-53
2021/03/18 03:24:17;;;;;;;11.05;4.97;;;-1.50;99.90;;;;;;5074550;28;20028;-55
2021/03/18 03:26:43;;;;;;;11.52;4.63;;;-1.40;99.90;;;;;;5055116;28;20100;-54
2021/03/18 03:29:09;;;;;;;8.10;4.72;;;-1.40;99.90;;;;;;5055018;28;20017;-53
2021/03/18 03:31:35;;;;;;;8.73;4.30;;;-1.40;99.90;;;;;;5055041;28;20064;-53
2021/03/18 03:34:04;;;;;;;6.50;4.10;;;-1.40;99.90;;;;;;5054985;28;20491;-52
2021/03/18 03:36:30;;;;;;;7.30;4.28;;;-1.40;99.90;;;;;;5055001;28;20516;-56
2021/03/18 03:38:56;;;;;;;8.18;4.53;;;-1.30;99.90;;;;;;5054215;28;20032;-52
2021/03/18 03:41:22;;;;;;;7.90;4.50;;;-1.30;99.90;;;;;;5054810;28;20029;-55
2021/03/18 03:43:48;;;;;;;9.38;5.10;;;-1.30;99.90;;;;;;5054981;28;20025;-56
2021/03/18 03:46:14;;;;;;;7.85;4.18;;;-1.30;99.90;;;;;;5053665;28;20029;-53
2021/03/18 03:48:39;;;;;;;7.60;4.18;;;-1.40;99.90;;;;;;5055077;28;20368;-53
2021/03/18 03:51:05;;;;;;;7.97;4.03;;;-1.40;99.90;;;;;;5062582;28;20066;-54
2021/03/18 03:53:36;;;;;;;7.35;4.13;;;-1.40;99.90;;;;;;5073937;28;20091;-50
2021/03/18 03:56:24;;;;;;;7.97;3.95;;;-1.40;99.90;;;;;;5074690;28;20052;-55
2021/03/18 03:59:04;;;;;;;11.60;5.70;;;-1.40;99.90;;;;;;5074522;28;20029;-54
2021/03/18 04:01:49;;;;;;;9.45;4.00;;;-1.40;99.90;;;;;;5074559;28;20032;-54
2021/03/18 04:04:27;;;;;;;10.07;4.00;;;-1.30;99.90;;;;;;5074639;28;20025;-54
2021/03/18 04:06:57;;;;;;;10.25;4.50;;;-1.30;99.90;;;;;;5074022;28;20404;-50
2021/03/18 04:09:24;;;;;;;7.97;4.32;;;-1.30;99.90;;;;;;5073609;28;20021;-51
2021/03/18 04:11:52;;;;;;;8.65;4.22;;;-1.20;99.90;;;;;;5074391;28;20096;-56
2021/03/18 04:14:22;;;;;;;8.05;4.43;;;-1.20;99.90;;;;;;5074323;28;20025;-50
2021/03/18 04:16:50;;;;;;;7.18;3.97;;;-1.10;99.90;;;;;;5074229;28;20020;-56
2021/03/18 04:19:17;;;;;;;7.07;3.90;;;-1.10;99.90;;;;;;5074192;28;20017;-50
2021/03/18 04:21:47;;;;;;;9.23;4.80;;;-1.00;99.90;;;;;;5074019;28;20043;-53
2021/03/18 04:24:14;;;;;;;7.43;3.78;;;-0.90;99.90;;;;;;5073387;28;20463;-54
2021/03/18 04:26:41;;;;;;;11.55;4.80;;;-0.90;99.90;;;;;;5073957;28;20379;-55
2021/03/18 04:29:08;;;;;;;6.40;3.80;;;-0.80;99.90;;;;;;5074314;28;20017;-53
2021/03/18 04:31:38;;;;;;;6.53;4.00;;;-0.80;99.90;;;;;;5073917;28;20021;-55
2021/03/18 04:34:04;;;;;;;9.50;5.13;;;-0.70;99.90;;;;;;5073944;28;20063;-54
2021/03/18 04:36:32;;;;;;;12.27;5.63;;;-0.70;99.90;;;;;;5073407;28;20040;-54
2021/03/18 04:38:59;;;;;;;11.98;6.38;;;-0.60;99.90;;;;;;5072838;28;20062;-53
2021/03/18 04:41:27;;;;;;;8.10;4.60;;;-0.60;99.90;;;;;;5073690;28;20025;-53
2021/03/18 04:43:55;;;;;;;10.68;5.40;;;-0.60;99.90;;;;;;5073749;28;20025;-54
2021/03/18 04:46:22;;;;;;;9.70;5.03;;;-0.60;99.90;;;;;;5073626;28;20119;-52
2021/03/18 04:48:51;;;;;;;10.48;6.20;;;-0.50;99.90;;;;;;5073235;28;20074;-55
2021/03/18 04:51:16;;;;;;;12.00;6.43;;;-0.50;99.90;;;;;;5073538;28;20047;-56
2021/03/18 04:53:42;;;;;;;11.75;6.53;;;-0.60;99.90;;;;;;5070867;28;20056;-50
2021/03/18 04:56:08;;;;;;;14.45;7.55;;;-0.70;99.90;;;;;;5073433;28;20052;-54
2021/03/18 04:58:39;;;;;;;11.20;6.40;;;-0.80;99.90;;;;;;5072234;28;20032;-53
2021/03/18 05:01:06;;;;;;;11.10;5.97;;;-0.80;99.90;;;;;;5073247;28;20393;-55
2021/03/18 05:03:33;;;;;;;10.32;5.70;;;-0.90;99.90;;;;;;5073182;28;20097;-56
2021/03/18 05:06:03;;;;;;;11.55;5.70;;;-1.10;99.90;;;;;;5073413;28;20031;-51
2021/03/18 05:08:31;;;;;;;13.50;6.03;;;-1.10;99.90;;;;;;5072342;28;20020;-53
2021/03/18 05:10:57;;;;;;;9.90;5.50;;;-1.20;99.90;;;;;;5073369;28;20021;-56
2021/03/18 05:13:25;;;;;;;13.00;6.47;;;-1.40;99.90;;;;;;5073030;28;20047;-52
2021/03/18 05:15:51;;;;;;;12.40;6.22;;;-1.40;99.90;;;;;;5073009;28;20025;-52
2021/03/18 05:18:17;;;;;;;10.98;5.93;;;-1.50;99.90;;;;;;5072627;28;20031;-52
2021/03/18 05:20:45;;;;;;;8.00;4.30;;;-1.60;99.90;;;;;;5073057;28;20601;-54
2021/03/18 05:23:13;;;;;;;10.35;4.95;;;-1.60;99.90;;;;;;5072004;28;20070;-55
2021/03/18 05:25:39;;;;;;;13.13;5.78;;;-1.60;99.90;;;;;;5084498;28;20371;-50
2021/03/18 05:28:05;;;;;;;10.85;5.72;;;-1.60;99.90;;;;;;5093344;28;20091;-52
2021/03/18 05:30:32;;;;;;;12.45;5.35;;;-1.60;99.90;;;;;;5092782;28;20024;-53
2021/03/18 05:32:59;;;;;;;14.95;6.20;;;-1.50;99.90;;;;;;5093145;28;20024;-54
2021/03/18 05:35:25;;;;;;;15.85;6.63;;;-1.40;99.90;;;;;;5093045;28;20483;-51
2021/03/18 05:37:50;;;;;;;16.15;6.78;;;-1.30;99.90;;;;;;5091995;28;20024;-55
2021/03/18 05:40:17;;;;;;;13.27;6.45;;;-1.20;99.90;;;;;;5093212;28;20024;-56
2021/03/18 05:42:43;;;;;;;14.02;6.20;;;-1.10;99.90;;;;;;5092978;28;20328;-55
2021/03/18 05:45:11;;;;;;;12.73;6.15;;;-1.00;99.90;;;;;;5092757;28;20115;-51
2021/03/18 05:47:38;;;;;;;11.15;5.97;;;-0.90;99.90;;;;;;5092819;28;20404;-50
2021/03/18 05:50:17;;;;;;;13.68;6.53;;;-0.80;99.90;;;;;;5092789;28;20031;-53
2021/03/18 05:52:44;;;;;;;10.77;5.68;;;-0.70;99.90;;;;;;5051695;28;20018;-54
2021/03/18 05:55:11;;;;;;;13.55;6.30;;;-0.60;99.90;;;;;;5052589;28;20116;-55
2021/03/18 05:57:38;;;;;;;11.85;6.28;;;-0.50;99.90;;;;;;5052322;28;20036;-55
2021/03/18 06:00:08;;;;;;;8.20;5.22;;;-0.50;99.90;;;;;;5064095;28;20506;-54
2021/03/18 06:02:35;;;;;;;10.60;6.13;;;-0.40;99.90;;;;;;5071773;28;20021;-57
2021/03/18 06:05:09;;;;;;;14.27;6.82;;;-0.30;99.90;;;;;;5071984;28;20024;-53
2021/03/18 06:07:42;;;;;;;10.23;6.47;;;-0.20;99.90;;;;;;5071333;28;20027;-51
2021/03/18 06:10:10;;;;;;;13.50;7.00;;;-0.10;99.90;;;;;;5075957;28;20067;-56
2021/03/18 06:12:37;;;;;;;12.52;6.13;;;0.00;99.90;;;;;;5078685;28;20096;-52
2021/03/18 06:15:06;;;;;;;20.33;8.43;;;0.00;99.90;;;;;;5079207;28;20028;-50
2021/03/18 06:17:33;;;;;;;20.50;8.07;;;0.10;99.90;;;;;;5078713;28;20028;-50
2021/03/18 06:20:00;;;;;;;15.77;7.32;;;0.10;99.90;;;;;;5079122;28;20418;-51
2021/03/18 06:22:37;;;;;;;11.70;6.35;;;0.20;99.90;;;;;;5076352;28;20024;-53
2021/03/18 06:25:23;;;;;;;14.77;7.10;;;0.30;99.90;;;;;;5085389;28;20020;-49
2021/03/18 06:27:49;;;;;;;13.02;6.20;;;0.30;99.90;;;;;;5099302;28;20062;-54
2021/03/18 06:30:15;;;;;;;13.70;5.97;;;0.40;99.90;;;;;;5099269;28;20032;-51
2021/03/18 06:32:40;;;;;;;11.90;6.18;;;0.50;99.90;;;;;;5099014;28;20288;-54
2021/03/18 06:35:09;;;;;;;9.93;6.15;;;0.60;99.90;;;;;;5099287;28;20103;-54
2021/03/18 06:37:36;;;;;;;11.90;6.55;;;0.90;99.90;;;;;;5097808;28;20032;-50
2021/03/18 06:40:11;;;;;;;13.38;7.13;;;1.00;99.90;;;;;;5099182;28;20019;-52
2021/03/18 06:42:39;;;;;;;5.65;3.55;;;1.30;99.90;;;;;;5097846;28;20027;-54
2021/03/18 06:45:13;;;;;;;11.68;5.80;;;2.00;99.90;;;;;;5099120;28;20489;-52
2021/03/18 06:47:47;;;;;;;8.32;4.68;;;3.00;99.90;;;;;;5098896;28;20098;-51
2021/03/18 06:50:15;;;;;;;8.00;5.20;;;3.90;99.90;;;;;;5098413;28;20016;-54
2021/03/18 06:52:42;;;;;;;10.80;6.03;;;5.00;99.90;;;;;;5077464;28;20044;-54
2021/03/18 06:55:10;;;;;;;7.15;4.75;;;5.40;99.90;;;;;;5078616;28;20037;-50
2021/03/18 06:57:37;;;;;;;12.00;5.43;;;5.20;99.90;;;;;;5078700;28;20028;-52
2021/03/18 07:00:10;;;;;;;8.43;5.60;;;5.20;99.90;;;;;;5078648;28;20017;-52
2021/03/18 07:02:41;;;;;;;7.72;4.65;;;5.30;99.90;;;;;;5078551;28;20058;-54
2021/03/18 07:05:27;;;;;;;5.43;4.07;;;6.50;99.90;;;;;;5078562;28;20035;-52
2021/03/18 07:07:52;;;;;;;8.18;5.85;;;8.30;99.90;;;;;;5076982;28;20033;-53
2021/03/18 07:10:35;;;;;;;5.93;4.00;;;8.30;99.90;;;;;;5078510;28;20040;-52
2021/03/18 07:13:18;;;;;;;6.50;4.43;;;8.00;99.90;;;;;;5078387;28;20032;-54
2021/03/18 07:15:44;;;;;;;7.72;4.28;;;7.50;99.90;;;;;;5078558;28;20384;-50
2021/03/18 07:18:12;;;;;;;5.70;4.18;;;7.10;99.90;;;;;;5078210;28;20024;-55
2021/03/18 07:20:37;;;;;;;6.03;4.72;;;6.60;99.90;;;;;;5077561;28;20056;-55
2021/03/18 07:23:12;;;;;;;9.40;5.63;;;6.30;99.90;;;;;;5073412;28;20059;-52
2021/03/18 07:25:46;;;;;;;7.97;5.38;;;6.10;99.90;;;;;;5086472;28;20020;-51
2021/03/18 07:28:14;;;;;;;7.57;5.03;;;5.90;99.90;;;;;;5095376;28;20027;-51
2021/03/18 07:30:41;;;;;;;5.90;4.60;;;5.70;99.90;;;;;;5095390;28;20024;-53
2021/03/18 07:33:07;;;;;;;7.63;4.88;;;5.70;99.90;;;;;;5095521;28;20024;-56
2021/03/18 07:35:34;;;;;;;9.88;5.90;;;5.80;99.90;;;;;;5095194;28;20036;-52
2021/03/18 07:38:00;;;;;;;7.63;5.20;;;6.10;99.90;;;;;;5093963;28;20103;-55
2021/03/18 07:40:27;;;;;;;8.23;5.53;;;6.00;99.90;;;;;;5095189;28;20150;-53
2021/03/18 07:42:55;;;;;;;9.18;5.57;;;5.70;99.90;;;;;;5095469;28;20077;-54
2021/03/18 07:45:23;;;;;;;7.82;5.05;;;5.40;99.90;;;;;;5095058;28;20059;-54
2021/03/18 07:47:49;;;;;;;9.80;5.53;;;5.10;99.90;;;;;;5095008;28;20111;-52
2021/03/18 07:50:18;;;;;;;9.57;5.28;;;4.90;99.90;;;;;;5093771;28;20027;-52
2021/03/18 07:52:45;;;;;;;8.20;5.32;;;4.80;99.90;;;;;;5073463;28;20024;-56
2021/03/18 07:55:15;;;;;;;10.70;5.28;;;4.60;99.90;;;;;;5073155;28;20496;-54
2021/03/18 07:57:45;;;;;;;8.82;4.90;;;4.60;99.90;;;;;;5073322;28;20040;-51
2021/03/18 08:00:15;;;;;;;9.05;5.82;;;4.60;99.90;;;;;;5074532;28;20035;-52
2021/03/18 08:02:41;;;;;;;6.63;4.72;;;4.80;99.90;;;;;;5074520;28;20124;-54
2021/03/18 08:05:07;;;;;;;11.95;6.18;;;4.90;99.90;;;;;;5074306;28;20504;-55
2021/03/18 08:07:40;;;;;;;11.45;5.80;;;5.10;99.90;;;;;;5073255;28;20096;-53
2021/03/18 08:10:07;;;;;;;11.10;6.03;;;5.20;99.90;;;;;;5074407;28;20023;-49
2021/03/18 08:12:44;;;;;;;11.73;7.00;;;5.30;99.90;;;;;;5074391;28;20028;-50
2021/03/18 08:15:25;;;;;;;11.23;6.20;;;6.30;99.90;;;;;;5074317;28;20021;-51
2021/03/18 08:17:52;;;;;;;9.18;5.57;;;8.10;99.90;;;;;;5074284;28;20051;-55
2021/03/18 08:20:39;;;;;;;8.57;5.57;;;9.60;99.90;;;;;;5074082;28;20189;-55
2021/03/18 08:23:26;;;;;;;9.05;6.90;;;11.00;99.90;;;;;;5073058;28;20055;-51
2021/03/18 08:26:00;;;;;;;9.40;5.90;;;11.50;99.50;;;;;;5086022;28;20298;-52
2021/03/18 08:28:49;;;;;;;9.15;6.38;;;11.50;99.90;;;;;;5094343;28;20020;-55
2021/03/18 08:31:21;;;;;;;8.73;5.65;;;12.40;99.90;;;;;;5094232;28;20025;-52
2021/03/18 08:33:51;;;;;;;8.68;5.38;;;13.20;99.90;;;;;;5093848;28;20094;-53
2021/03/18 08:36:30;;;;;;;10.10;5.95;;;13.90;96.60;;;;;;5094126;28;20024;-54
2021/03/18 08:39:07;;;;;;;7.93;6.03;;;14.50;92.10;;;;;;5092893;28;20043;-54
2021/03/18 08:41:44;;;;;;;8.73;5.75;;;15.00;91.60;;;;;;5094136;28;20493;-60
2021/03/18 08:44:23;;;;;;;6.25;4.88;;;15.50;92.10;;;;;;5094028;28;20180;-56
2021/03/18 08:46:53;;;;;;;6.80;5.63;;;15.90;89.20;;;;;;5093836;28;20020;-56
2021/03/18 08:49:33;;;;;;;9.82;6.05;;;16.20;92.70;;;;;;5093752;28;20054;-55
2021/03/18 08:52:01;;;;;;;7.97;5.90;;;16.70;88.70;;;;;;5076900;28;20029;-54
2021/03/18 08:54:36;;;;;;;6.93;5.22;;;16.80;86.30;;;;;;5073548;28;20108;-52
2021/03/18 08:57:03;;;;;;;9.70;7.32;;;17.10;83.60;;;;;;5073349;28;20041;-53
2021/03/18 08:59:29;;;;;;;7.85;6.25;;;17.20;84.40;;;;;;5073397;28;20056;-57
2021/03/18 09:02:09;;;;;;;8.13;6.20;;;17.30;81.70;;;;;;5073339;28;20024;-56
2021/03/18 09:04:48;;;;;;;9.07;7.10;;;17.20;77.80;;;;;;5073187;28;20048;-56
2021/03/18 09:07:18;;;;;;;9.93;7.82;;;16.80;82.30;;;;;;5072106;28;20088;-55
2021/03/18 09:09:44;;;;;;;9.20;7.25;;;16.90;82.30;;;;;;5073068;28;20028;-55
2021/03/18 09:12:10;;;;;;;17.50;9.82;;;17.30;80.70;;;;;;5073356;28;20078;-53
2021/03/18 09:14:38;;;;;;;12.60;9.82;;;17.20;70.10;;;;;;5073204;28;20025;-54
2021/03/18 09:17:09;;;;;;;11.20;8.50;;;16.80;75.90;;;;;;5073173;28;20111;-53
2021/03/18 09:19:35;;;;;;;9.75;7.00;;;17.00;72.90;;;;;;5072931;28;20020;-55
2021/03/18 09:22:02;;;;;;;10.60;7.88;;;16.90;73.50;;;;;;5071715;28;20040;-56
2021/03/18 09:24:38;;;;;;;7.53;6.45;;;16.40;75.10;;;;;;5074477;28;20035;-55
2021/03/18 09:27:07;;;;;;;;;;;16.40;73.80;;;;;;5093754;28;20024;-54
2021/03/18 09:29:33;;;;;;;5.15;4.22;;;15.80;67.50;;;;;;5093317;28;19965;-55
2021/03/18 09:32:06;;;;;;;6.78;5.72;;;15.30;76.60;;;;;;5093210;28;20036;-55
2021/03/18 09:34:39;;;;;;;6.22;4.38;;;15.10;76.30;;;;;;5093245;28;20118;-56
2021/03/18 09:37:06;;;;;;;9.05;4.53;;;15.10;75.90;;;;;;5091765;28;20417;-55
2021/03/18 09:39:31;;;;;;;5.07;3.47;;;15.00;75.00;;;;;;5093193;28;20463;-55
2021/03/18 09:42:01;;;;;;;5.78;4.30;;;15.40;73.90;;;;;;5092884;28;20028;-52
2021/03/18 09:44:29;;;;;;;5.28;4.20;;;15.80;73.50;;;;;;5092644;28;20016;-53
2021/03/18 09:47:03;;;;;;;5.55;4.10;;;16.20;71.50;;;;;;5092827;28;20031;-54
2021/03/18 09:49:38;;;;;;;6.63;4.07;;;15.90;71.60;;;;;;5092967;28;20024;-54
2021/03/18 09:52:10;;;;;;;7.45;4.72;;;16.30;67.40;;;;;;5075383;28;20056;-54
2021/03/18 09:54:36;;;;;;;5.30;4.05;;;16.50;70.60;;;;;;5072804;28;20107;-54
2021/03/18 09:57:06;;;;;;;5.43;3.90;;;16.30;70.60;;;;;;5069502;28;20500;-55
2021/03/18 09:59:31;;;;;;;5.35;3.67;;;16.20;70.70;;;;;;5072164;28;20353;-55
2021/03/18 10:01:57;;;;;;;6.80;4.43;;;16.00;70.80;;;;;;5071984;28;20032;-51
2021/03/18 10:04:23;;;;;;;4.28;3.60;;;15.20;71.00;;;;;;5072658;28;20044;-56
2021/03/18 10:06:52;;;;;;;5.75;4.10;;;14.50;71.90;;;;;;5072158;28;20039;-52
2021/03/18 10:09:37;;;;;;;7.03;4.22;;;13.80;72.80;;;;;;5072088;28;20048;-53
2021/03/18 10:12:17;;;;;;;5.65;3.70;;;13.00;72.80;;;;;;5056822;28;20031;-54
2021/03/18 10:15:01;;;;;;;7.18;4.22;;;12.40;76.10;;;;;;5053151;28;20021;-54
2021/03/18 10:17:31;;;;;;;6.03;4.13;;;11.90;72.00;;;;;;5072165;28;20020;-54
2021/03/18 10:20:19;;;;;;;5.70;3.78;;;11.60;76.30;;;;;;5072229;28;20017;-55
2021/03/18 10:22:56;;;;;;;5.03;3.47;;;11.30;77.10;;;;;;5071092;28;20379;-51
2021/03/18 10:25:27;;;;;;;5.07;3.40;;;11.20;77.00;;;;;;5080938;28;20074;-55
2021/03/18 10:28:09;;;;;;;6.88;4.22;;;11.00;78.20;;;;;;5092390;28;20031;-56
2021/03/18 10:30:38;;;;;;;6.35;3.53;;;10.80;77.10;;;;;;5092379;28;20078;-51
2021/03/18 10:33:17;;;;;;;6.03;3.38;;;10.60;77.90;;;;;;5090872;28;20020;-54
2021/03/18 10:35:56;;;;;;;5.45;3.25;;;10.40;77.80;;;;;;5091028;28;20028;-53
2021/03/18 10:38:31;;;;;;;5.93;3.63;;;10.40;79.30;;;;;;5091298;28;20483;-50
2021/03/18 10:40:59;;;;;;;5.72;3.80;;;10.40;78.30;;;;;;5090844;28;20131;-53
2021/03/18 10:43:30;;;;;;;8.88;4.07;;;10.50;78.10;;;;;;5092106;28;20024;-53
2021/03/18 10:45:59;;;;;;;5.15;3.65;;;10.70;77.10;;;;;;5092100;28;20539;-54
2021/03/18 10:48:26;;;;;;;6.05;4.43;;;10.90;77.10;;;;;;5092272;28;20025;-52
2021/03/18 10:50:53;;;;;;;8.13;3.83;;;11.10;76.70;;;;;;5085812;28;20507;-55
2021/03/18 10:53:21;;;;;;;4.65;3.53;;;11.30;76.70;;;;;;5069671;28;20025;-55
2021/03/18 10:55:52;;;;;;;5.10;3.95;;;11.50;75.60;;;;;;5071675;28;20052;-51
2021/03/18 10:58:21;;;;;;;3.88;3.03;;;11.70;76.00;;;;;;5075369;28;20106;-56
2021/03/18 11:00:48;;;;;;;5.68;3.47;;;11.70;74.60;;;;;;5075527;28;20476;-52
2021/03/18 11:03:16;;;;;;;5.15;3.75;;;11.40;74.80;;;;;;5075540;28;20032;-52
2021/03/18 11:05:50;;;;;;;6.50;4.25;;;11.10;76.60;;;;;;5075548;28;20103;-54
2021/03/18 11:08:32;;;;;;;7.35;4.32;;;10.70;76.00;;;;;;5074488;28;20086;-54
2021/03/18 11:11:00;;;;;;;6.15;4.53;;;10.30;77.00;;;;;;5075337;28;20134;-51
2021/03/18 11:13:30;;;;;;;7.53;4.60;;;10.00;78.50;;;;;;5075467;28;20522;-51
2021/03/18 11:16:00;;;;;;;5.93;4.00;;;9.80;79.70;;;;;;5075370;28;20054;-53
2021/03/18 11:18:39;;;;;;;7.55;4.82;;;9.70;80.10;;;;;;5075259;28;20024;-52
2021/03/18 11:21:26;;;;;;;7.40;4.13;;;9.70;80.10;;;;;;5074978;28;20483;-54
2021/03/18 11:23:54;;;;;;;9.25;5.22;;;9.70;80.30;;;;;;5053946;28;20108;-55
2021/03/18 11:26:25;;;;;;;7.97;5.60;;;9.60;80.80;;;;;;5087757;28;20474;-54
2021/03/18 11:28:59;;;;;;;6.60;4.75;;;9.50;79.40;;;;;;5073874;28;20020;-55
2021/03/18 11:31:27;;;;;;;7.32;4.70;;;9.50;80.00;;;;;;5069412;28;20048;-54
2021/03/18 11:33:54;;;;;;;6.15;3.92;;;9.40;77.30;;;;;;5074612;28;20021;-51
2021/03/18 11:36:20;;;;;;;7.07;4.45;;;9.50;78.10;;;;;;5074639;28;20104;-52
2021/03/18 11:38:46;;;;;;;6.78;4.43;;;9.70;78.50;;;;;;5073558;28;20108;-51
2021/03/18 11:41:13;;;;;;;8.68;4.53;;;10.00;78.90;;;;;;5074622;28;20040;-52
2021/03/18 11:43:38;;;;;;;7.20;4.20;;;10.30;77.50;;;;;;5074617;28;20314;-55
2021/03/18 11:46:04;;;;;;;4.85;4.05;;;10.40;77.10;;;;;;5074189;28;20047;-52
2021/03/18 11:48:30;;;;;;;4.90;3.75;;;10.50;76.60;;;;;;5074473;28;20028;-53
2021/03/18 11:50:56;;;;;;;5.60;4.00;;;10.50;73.00;;;;;;5074183;28;20020;-53
2021/03/18 11:53:22;;;;;;;5.65;3.70;;;10.40;73.40;;;;;;5072944;28;20024;-50
2021/03/18 11:55:48;;;;;;;8.02;3.95;;;10.40;73.60;;;;;;5073852;28;20044;-52
2021/03/18 11:58:15;;;;;;;7.85;4.55;;;10.40;73.00;;;;;;5072608;28;20135;-52
2021/03/18 12:00:40;;;;;;;6.88;4.60;;;10.20;70.20;;;;;;5073919;28;20072;-51
2021/03/18 12:03:08;;;;;;;6.55;4.03;;;10.10;70.80;;;;;;5074009;28;20040;-53
2021/03/18 12:05:34;;;;;;;6.38;3.88;;;9.90;70.20;;;;;;5074153;28;20048;-53
2021/03/18 12:08:01;;;;;;;7.63;4.80;;;10.00;71.80;;;;;;5072457;28;20653;-54
2021/03/18 12:10:28;;;;;;;6.70;4.38;;;10.10;73.10;;;;;;5074115;28;20028;-52
2021/03/18 12:12:54;;;;;;;6.10;4.32;;;10.20;71.60;;;;;;5073870;28;20032;-53
2021/03/18 12:15:19;;;;;;;7.60;4.55;;;10.20;74.10;;;;;;5073738;28;20047;-54
2021/03/18 12:17:45;;;;;;;8.13;4.68;;;10.30;73.90;;;;;;5073895;28;20025;-53
2021/03/18 12:20:16;;;;;;;5.97;3.97;;;10.50;73.00;;;;;;5073896;28;20078;-54
2021/03/18 12:22:45;;;;;;;5.28;3.47;;;10.60;73.50;;;;;;5072844;28;20067;-51
2021/03/18 12:25:13;;;;;;;6.13;3.88;;;10.70;72.80;;;;;;5073817;28;20107;-54
2021/03/18 12:27:38;;;;;;;5.57;3.95;;;10.90;72.10;;;;;;5073963;28;20092;-55
2021/03/18 12:30:09;;;;;;;7.43;3.92;;;11.10;72.80;;;;;;5073853;28;20105;-54
2021/03/18 12:32:35;;;;;;;4.07;3.10;;;11.20;69.00;;;;;;5073870;28;20033;-52
2021/03/18 12:35:02;;;;;;;5.25;3.50;;;11.20;69.80;;;;;;5073897;28;20023;-53
2021/03/18 12:37:27;;;;;;;4.28;2.65;;;11.20;69.80;;;;;;5072846;28;20066;-52
2021/03/18 12:39:53;;;;;;;6.10;3.38;;;11.30;69.40;;;;;;5073754;28;20021;-51
2021/03/18 12:42:19;;;;;;;4.18;2.53;;;11.30;67.80;;;;;;5073570;28;20306;-53
2021/03/18 12:44:44;;;;;;;4.57;3.25;;;11.40;68.30;;;;;;5073683;28;20418;-51
2021/03/18 12:47:10;;;;;;;5.03;3.10;;;11.40;68.30;;;;;;5073447;28;20128;-55
2021/03/18 12:49:36;;;;;;;5.22;3.10;;;11.40;68.20;;;;;;5073778;28;20016;-55
2021/03/18 12:52:03;;;;;;;4.40;2.72;;;11.50;68.20;;;;;;5072302;28;20025;-52
2021/03/18 12:54:29;;;;;;;4.07;2.92;;;11.40;68.30;;;;;;5073545;28;20502;-51
2021/03/18 12:56:55;;;;;;;4.80;3.20;;;11.40;67.90;;;;;;5073325;28;20226;-53
2021/03/18 12:59:20;;;;;;;5.07;3.70;;;11.30;67.80;;;;;;5073143;28;20039;-51
2021/03/18 13:01:46;;;;;;;5.85;3.60;;;11.20;68.10;;;;;;5073403;28;20032;-53